sensor_id;sensor_type;location;lat;lon;timestamp;temperature;humidity
56725;DHT22;42608;52.776;6.968;2023-05-21T00:01:52;15.00;99.90
56725;DHT22;42608;52.776;6.968;2023-05-21T00:04:18;15.00;99.90
56725;DHT22;42608;52.776;6.968;2023-05-21T00:06:43;15.00;99.90
56725;DHT22;42608;52.776;6.968;2023-05-21T00:09:09;14.90;99.90
56725;DHT22;42608;52.776;6.968;2023-05-21T00:11:37;14.90;99.90
56725;DHT22;42608;52.776;6.968;2023-05-21T00:14:02;14.90;99.90
56725;DHT22;42608;52.776;6.968;2023-05-21T00:16:28;14.90;99.90
56725;DHT22;42608;52.776;6.968;2023-05-21T00:18:53;14.90;99.90
56725;DHT22;42608;52.776;6.968;2023-05-21T00:21:19;14.90;99.90
56725;DHT22;42608;52.776;6.968;2023-05-21T00:23:47;14.90;99.90
56725;DHT22;42608;52.776;6.968;2023-05-21T00:26:14;14.90;99.90
56725;DHT22;42608;52.776;6.968;2023-05-21T00:28:39;14.90;99.90
56725;DHT22;42608;52.776;6.968;2023-05-21T00:31:05;14.90;99.90
56725;DHT22;42608;52.776;6.968;2023-05-21T00:33:30;14.80;99.90
56725;DHT22;42608;52.776;6.968;2023-05-21T00:35:56;14.80;99.90
56725;DHT22;42608;52.776;6.968;2023-05-21T00:38:22;14.80;99.90
56725;DHT22;42608;52.776;6.968;2023-05-21T00:40:48;14.80;99.90
56725;DHT22;42608;52.776;6.968;2023-05-21T00:43:13;14.70;99.90
56725;DHT22;42608;52.776;6.968;2023-05-21T00:45:39;14.70;99.90
56725;DHT22;42608;52.776;6.968;2023-05-21T00:48:07;14.70;99.90
56725;DHT22;42608;52.776;6.968;2023-05-21T00:50:33;14.70;99.90
56725;DHT22;42608;52.776;6.968;2023-05-21T00:52:58;14.70;99.90
56725;DHT22;42608;52.776;6.968;2023-05-21T00:55:24;14.70;99.90
56725;DHT22;42608;52.776;6.968;2023-05-21T00:57:50;14.70;99.90
56725;DHT22;42608;52.776;6.968;2023-05-21T01:00:15;14.70;99.90
56725;DHT22;42608;52.776;6.968;2023-05-21T01:02:41;14.70;99.90
56725;DHT22;42608;52.776;6.968;2023-05-21T01:05:08;14.70;99.90
56725;DHT22;42608;52.776;6.968;2023-05-21T01:07:34;14.70;99.90
56725;DHT22;42608;52.776;6.968;2023-05-21T01:10:02;14.70;99.90
56725;DHT22;42608;52.776;6.968;2023-05-21T01:12:28;14.60;99.90
56725;DHT22;42608;52.776;6.968;2023-05-21T01:14:54;14.70;99.90
56725;DHT22;42608;52.776;6.968;2023-05-21T01:17:20;14.60;99.90
56725;DHT22;42608;52.776;6.968;2023-05-21T01:19:48;14.60;99.90
56725;DHT22;42608;52.776;6.968;2023-05-21T01:22:14;14.60;99.90
56725;DHT22;42608;52.776;6.968;2023-05-21T01:24:43;14.60;99.90
56725;DHT22;42608;52.776;6.968;2023-05-21T01:27:11;14.60;99.90
56725;DHT22;42608;52.776;6.968;2023-05-21T01:29:37;14.60;99.90
56725;DHT22;42608;52.776;6.968;2023-05-21T01:32:15;14.50;99.90
56725;DHT22;42608;52.776;6.968;2023-05-21T01:37:16;14.50;99.90
56725;DHT22;42608;52.776;6.968;2023-05-21T01:39:46;14.50;99.90
56725;DHT22;42608;52.776;6.968;2023-05-21T01:42:14;14.50;99.90
56725;DHT22;42608;52.776;6.968;2023-05-21T01:44:39;14.40;99.90
56725;DHT22;42608;52.776;6.968;2023-05-21T01:47:06;14.40;99.90
56725;DHT22;42608;52.776;6.968;2023-05-21T01:49:31;14.40;99.90
56725;DHT22;42608;52.776;6.968;2023-05-21T01:51:57;14.40;99.90
56725;DHT22;42608;52.776;6.968;2023-05-21T01:54:23;14.40;99.90
56725;DHT22;42608;52.776;6.968;2023-05-21T01:56:49;14.40;99.90
56725;DHT22;42608;52.776;6.968;2023-05-21T01:59:15;14.30;99.90
56725;DHT22;42608;52.776;6.968;2023-05-21T02:01:41;14.30;99.90
56725;DHT22;42608;52.776;6.968;2023-05-21T02:04:07;14.30;99.90
56725;DHT22;42608;52.776;6.968;2023-05-21T02:06:32;14.20;99.90
56725;DHT22;42608;52.776;6.968;2023-05-21T02:09:00;14.20;99.90
56725;DHT22;42608;52.776;6.968;2023-05-21T02:11:26;14.20;99.90
56725;DHT22;42608;52.776;6.968;2023-05-21T02:13:52;14.20;99.90
56725;DHT22;42608;52.776;6.968;2023-05-21T02:16:18;14.20;99.90
56725;DHT22;42608;52.776;6.968;2023-05-21T02:18:44;14.20;99.90
56725;DHT22;42608;52.776;6.968;2023-05-21T02:21:10;14.10;99.90
56725;DHT22;42608;52.776;6.968;2023-05-21T02:23:36;14.10;99.90
56725;DHT22;42608;52.776;6.968;2023-05-21T02:26:02;14.10;99.90
56725;DHT22;42608;52.776;6.968;2023-05-21T02:28:28;14.10;99.90
56725;DHT22;42608;52.776;6.968;2023-05-21T02:30:54;14.10;99.90
56725;DHT22;42608;52.776;6.968;2023-05-21T02:33:20;14.00;99.90
56725;DHT22;42608;52.776;6.968;2023-05-21T02:35:46;14.00;99.90
56725;DHT22;42608;52.776;6.968;2023-05-21T02:38:12;14.00;99.90
56725;DHT22;42608;52.776;6.968;2023-05-21T02:40:38;14.00;99.90
56725;DHT22;42608;52.776;6.968;2023-05-21T02:43:03;13.90;99.90
56725;DHT22;42608;52.776;6.968;2023-05-21T02:45:29;13.90;99.90
56725;DHT22;42608;52.776;6.968;2023-05-21T02:47:55;13.90;99.90
56725;DHT22;42608;52.776;6.968;2023-05-21T02:50:20;13.90;99.90
56725;DHT22;42608;52.776;6.968;2023-05-21T02:52:47;13.80;99.90
56725;DHT22;42608;52.776;6.968;2023-05-21T02:55:12;13.80;99.90
56725;DHT22;42608;52.776;6.968;2023-05-21T02:57:38;13.80;99.90
56725;DHT22;42608;52.776;6.968;2023-05-21T03:00:04;13.80;99.90
56725;DHT22;42608;52.776;6.968;2023-05-21T03:02:33;13.80;99.90
56725;DHT22;42608;52.776;6.968;2023-05-21T03:04:58;13.80;99.90
56725;DHT22;42608;52.776;6.968;2023-05-21T03:07:25;13.80;99.90
56725;DHT22;42608;52.776;6.968;2023-05-21T03:09:50;13.80;99.90
56725;DHT22;42608;52.776;6.968;2023-05-21T03:12:16;13.80;99.90
56725;DHT22;42608;52.776;6.968;2023-05-21T03:14:41;13.80;99.90
56725;DHT22;42608;52.776;6.968;2023-05-21T03:17:08;13.80;99.90
56725;DHT22;42608;52.776;6.968;2023-05-21T03:19:38;13.80;99.90
56725;DHT22;42608;52.776;6.968;2023-05-21T03:22:05;13.80;99.90
56725;DHT22;42608;52.776;6.968;2023-05-21T03:24:30;13.80;99.90
56725;DHT22;42608;52.776;6.968;2023-05-21T03:26:57;13.70;99.90
56725;DHT22;42608;52.776;6.968;2023-05-21T03:29:23;13.80;99.90
56725;DHT22;42608;52.776;6.968;2023-05-21T03:31:50;13.80;99.90
56725;DHT22;42608;52.776;6.968;2023-05-21T03:34:16;13.80;99.90
56725;DHT22;42608;52.776;6.968;2023-05-21T03:36:44;13.70;99.90
56725;DHT22;42608;52.776;6.968;2023-05-21T03:39:10;13.80;99.90
56725;DHT22;42608;52.776;6.968;2023-05-21T03:41:36;13.80;99.90
56725;DHT22;42608;52.776;6.968;2023-05-21T03:44:01;13.70;99.90
56725;DHT22;42608;52.776;6.968;2023-05-21T03:46:27;13.70;99.90
56725;DHT22;42608;52.776;6.968;2023-05-21T03:48:52;13.70;99.90
56725;DHT22;42608;52.776;6.968;2023-05-21T03:51:18;13.70;99.90
56725;DHT22;42608;52.776;6.968;2023-05-21T03:53:44;13.70;99.90
56725;DHT22;42608;52.776;6.968;2023-05-21T03:56:10;13.70;99.90
56725;DHT22;42608;52.776;6.968;2023-05-21T03:58:36;13.70;99.90
56725;DHT22;42608;52.776;6.968;2023-05-21T04:01:01;13.70;99.90
56725;DHT22;42608;52.776;6.968;2023-05-21T04:03:29;13.70;99.90
56725;DHT22;42608;52.776;6.968;2023-05-21T04:05:54;13.70;99.90
56725;DHT22;42608;52.776;6.968;2023-05-21T04:08:20;13.70;99.90
56725;DHT22;42608;52.776;6.968;2023-05-21T04:10:46;13.70;99.90
56725;DHT22;42608;52.776;6.968;2023-05-21T04:13:12;13.70;99.90
56725;DHT22;42608;52.776;6.968;2023-05-21T04:15:37;13.70;99.90
56725;DHT22;42608;52.776;6.968;2023-05-21T04:18:03;13.70;99.90
56725;DHT22;42608;52.776;6.968;2023-05-21T04:20:29;13.70;99.90
56725;DHT22;42608;52.776;6.968;2023-05-21T04:22:54;13.70;99.90
56725;DHT22;42608;52.776;6.968;2023-05-21T04:25:21;13.70;99.90
56725;DHT22;42608;52.776;6.968;2023-05-21T04:27:47;13.60;99.90
56725;DHT22;42608;52.776;6.968;2023-05-21T04:30:14;13.60;99.90
56725;DHT22;42608;52.776;6.968;2023-05-21T04:32:39;13.60;99.90
56725;DHT22;42608;52.776;6.968;2023-05-21T04:35:05;13.60;99.90
56725;DHT22;42608;52.776;6.968;2023-05-21T04:37:31;13.60;99.90
56725;DHT22;42608;52.776;6.968;2023-05-21T04:39:59;13.60;99.90
56725;DHT22;42608;52.776;6.968;2023-05-21T04:42:26;13.60;99.90
56725;DHT22;42608;52.776;6.968;2023-05-21T04:44:51;13.60;99.90
56725;DHT22;42608;52.776;6.968;2023-05-21T04:47:19;13.60;99.90
56725;DHT22;42608;52.776;6.968;2023-05-21T04:49:45;13.50;99.90
56725;DHT22;42608;52.776;6.968;2023-05-21T04:52:11;13.50;99.90
56725;DHT22;42608;52.776;6.968;2023-05-21T04:54:36;13.50;99.90
56725;DHT22;42608;52.776;6.968;2023-05-21T04:57:03;13.50;99.90
56725;DHT22;42608;52.776;6.968;2023-05-21T04:59:29;13.50;99.90
56725;DHT22;42608;52.776;6.968;2023-05-21T05:01:56;13.40;99.90
56725;DHT22;42608;52.776;6.968;2023-05-21T05:04:21;13.40;99.90
56725;DHT22;42608;52.776;6.968;2023-05-21T05:06:47;13.40;99.90
56725;DHT22;42608;52.776;6.968;2023-05-21T05:09:12;13.40;99.90
56725;DHT22;42608;52.776;6.968;2023-05-21T05:11:38;13.40;99.90
56725;DHT22;42608;52.776;6.968;2023-05-21T05:14:04;13.40;99.90
56725;DHT22;42608;52.776;6.968;2023-05-21T05:16:29;13.40;99.90
56725;DHT22;42608;52.776;6.968;2023-05-21T05:18:55;13.40;99.90
56725;DHT22;42608;52.776;6.968;2023-05-21T05:21:21;13.40;99.90
56725;DHT22;42608;52.776;6.968;2023-05-21T05:23:46;13.50;99.90
56725;DHT22;42608;52.776;6.968;2023-05-21T05:26:12;13.50;99.90
56725;DHT22;42608;52.776;6.968;2023-05-21T05:28:38;13.50;99.90
56725;DHT22;42608;52.776;6.968;2023-05-21T05:31:03;13.50;99.90
56725;DHT22;42608;52.776;6.968;2023-05-21T05:33:29;13.50;99.90
56725;DHT22;42608;52.776;6.968;2023-05-21T05:35:55;13.50;99.90
56725;DHT22;42608;52.776;6.968;2023-05-21T05:38:20;13.50;99.90
56725;DHT22;42608;52.776;6.968;2023-05-21T05:40:46;13.50;99.90
56725;DHT22;42608;52.776;6.968;2023-05-21T05:43:11;13.50;99.90
56725;DHT22;42608;52.776;6.968;2023-05-21T05:45:37;13.50;99.90
56725;DHT22;42608;52.776;6.968;2023-05-21T05:48:03;13.50;99.90
56725;DHT22;42608;52.776;6.968;2023-05-21T05:50:28;13.50;99.90
56725;DHT22;42608;52.776;6.968;2023-05-21T05:52:54;13.60;99.90
56725;DHT22;42608;52.776;6.968;2023-05-21T05:55:19;13.60;99.90
56725;DHT22;42608;52.776;6.968;2023-05-21T05:57:46;13.60;99.90
56725;DHT22;42608;52.776;6.968;2023-05-21T06:00:12;13.60;99.90
56725;DHT22;42608;52.776;6.968;2023-05-21T06:02:37;13.60;99.90
56725;DHT22;42608;52.776;6.968;2023-05-21T06:05:03;13.70;99.90
56725;DHT22;42608;52.776;6.968;2023-05-21T06:07:31;13.60;99.90
56725;DHT22;42608;52.776;6.968;2023-05-21T06:09:57;13.60;99.90
56725;DHT22;42608;52.776;6.968;2023-05-21T06:12:22;13.60;99.90
56725;DHT22;42608;52.776;6.968;2023-05-21T06:14:48;13.60;99.90
56725;DHT22;42608;52.776;6.968;2023-05-21T06:17:13;13.60;99.90
56725;DHT22;42608;52.776;6.968;2023-05-21T06:19:39;13.70;99.90
56725;DHT22;42608;52.776;6.968;2023-05-21T06:22:05;13.70;99.90
56725;DHT22;42608;52.776;6.968;2023-05-21T06:24:30;13.80;99.90
56725;DHT22;42608;52.776;6.968;2023-05-21T06:26:56;13.70;99.90
56725;DHT22;42608;52.776;6.968;2023-05-21T06:29:21;13.70;99.90
56725;DHT22;42608;52.776;6.968;2023-05-21T06:31:47;13.80;99.90
56725;DHT22;42608;52.776;6.968;2023-05-21T06:34:13;13.80;99.90
56725;DHT22;42608;52.776;6.968;2023-05-21T06:36:38;13.80;99.90
56725;DHT22;42608;52.776;6.968;2023-05-21T06:39:04;13.80;99.90
56725;DHT22;42608;52.776;6.968;2023-05-21T06:41:29;13.90;99.90
56725;DHT22;42608;52.776;6.968;2023-05-21T06:43:55;13.90;99.90
56725;DHT22;42608;52.776;6.968;2023-05-21T06:46:21;13.90;99.90
56725;DHT22;42608;52.776;6.968;2023-05-21T06:48:46;13.90;99.90
56725;DHT22;42608;52.776;6.968;2023-05-21T06:51:12;13.90;99.90
56725;DHT22;42608;52.776;6.968;2023-05-21T06:53:37;14.00;99.90
56725;DHT22;42608;52.776;6.968;2023-05-21T06:56:03;14.00;99.90
56725;DHT22;42608;52.776;6.968;2023-05-21T06:58:29;14.00;99.90
56725;DHT22;42608;52.776;6.968;2023-05-21T07:00:56;14.00;99.90
56725;DHT22;42608;52.776;6.968;2023-05-21T07:03:21;14.10;99.90
56725;DHT22;42608;52.776;6.968;2023-05-21T07:05:47;14.10;99.90
56725;DHT22;42608;52.776;6.968;2023-05-21T07:08:12;14.10;99.90
56725;DHT22;42608;52.776;6.968;2023-05-21T07:10:38;14.10;99.90
56725;DHT22;42608;52.776;6.968;2023-05-21T07:13:03;14.20;99.90
56725;DHT22;42608;52.776;6.968;2023-05-21T07:15:29;14.20;99.90
56725;DHT22;42608;52.776;6.968;2023-05-21T07:17:54;14.20;99.90
56725;DHT22;42608;52.776;6.968;2023-05-21T07:20:20;14.30;99.90
56725;DHT22;42608;52.776;6.968;2023-05-21T07:22:46;14.30;99.90
56725;DHT22;42608;52.776;6.968;2023-05-21T07:25:11;14.40;99.90
56725;DHT22;42608;52.776;6.968;2023-05-21T07:27:37;14.40;99.90
56725;DHT22;42608;52.776;6.968;2023-05-21T07:30:03;14.40;99.90
56725;DHT22;42608;52.776;6.968;2023-05-21T07:32:28;14.50;99.90
56725;DHT22;42608;52.776;6.968;2023-05-21T07:34:54;14.50;99.90
56725;DHT22;42608;52.776;6.968;2023-05-21T07:37:20;14.60;99.90
56725;DHT22;42608;52.776;6.968;2023-05-21T07:39:46;14.60;99.90
56725;DHT22;42608;52.776;6.968;2023-05-21T07:42:12;14.60;99.90
56725;DHT22;42608;52.776;6.968;2023-05-21T07:44:37;14.70;99.90
56725;DHT22;42608;52.776;6.968;2023-05-21T07:47:03;14.70;99.90
56725;DHT22;42608;52.776;6.968;2023-05-21T07:49:29;14.70;99.90
56725;DHT22;42608;52.776;6.968;2023-05-21T07:51:55;14.80;99.90
56725;DHT22;42608;52.776;6.968;2023-05-21T07:54:21;14.80;99.90
56725;DHT22;42608;52.776;6.968;2023-05-21T07:56:46;14.90;99.90
56725;DHT22;42608;52.776;6.968;2023-05-21T07:59:15;14.90;99.90
56725;DHT22;42608;52.776;6.968;2023-05-21T08:01:41;15.00;99.90
56725;DHT22;42608;52.776;6.968;2023-05-21T08:04:07;15.00;99.90
56725;DHT22;42608;52.776;6.968;2023-05-21T08:06:33;15.00;99.90
56725;DHT22;42608;52.776;6.968;2023-05-21T08:08:59;15.10;99.90
56725;DHT22;42608;52.776;6.968;2023-05-21T08:11:26;15.10;99.90
56725;DHT22;42608;52.776;6.968;2023-05-21T08:13:51;15.20;99.90
56725;DHT22;42608;52.776;6.968;2023-05-21T08:16:17;15.30;99.90
56725;DHT22;42608;52.776;6.968;2023-05-21T08:18:43;15.30;99.90
56725;DHT22;42608;52.776;6.968;2023-05-21T08:21:08;15.40;99.90
56725;DHT22;42608;52.776;6.968;2023-05-21T08:23:34;15.40;99.90
56725;DHT22;42608;52.776;6.968;2023-05-21T08:25:59;15.50;99.90
56725;DHT22;42608;52.776;6.968;2023-05-21T08:28:25;15.50;99.90
56725;DHT22;42608;52.776;6.968;2023-05-21T08:30:53;15.60;99.90
56725;DHT22;42608;52.776;6.968;2023-05-21T08:33:18;15.70;99.90
56725;DHT22;42608;52.776;6.968;2023-05-21T08:35:44;15.80;99.90
56725;DHT22;42608;52.776;6.968;2023-05-21T08:38:10;15.90;99.90
56725;DHT22;42608;52.776;6.968;2023-05-21T08:40:35;16.10;99.90
56725;DHT22;42608;52.776;6.968;2023-05-21T08:43:01;16.20;99.90
56725;DHT22;42608;52.776;6.968;2023-05-21T08:45:27;16.30;99.90
56725;DHT22;42608;52.776;6.968;2023-05-21T08:47:55;16.50;99.90
56725;DHT22;42608;52.776;6.968;2023-05-21T08:50:22;16.50;99.90
56725;DHT22;42608;52.776;6.968;2023-05-21T08:52:48;16.60;99.90
56725;DHT22;42608;52.776;6.968;2023-05-21T08:55:14;16.60;99.90
56725;DHT22;42608;52.776;6.968;2023-05-21T08:57:41;16.70;99.90
56725;DHT22;42608;52.776;6.968;2023-05-21T09:00:06;16.80;99.90
56725;DHT22;42608;52.776;6.968;2023-05-21T09:02:33;16.80;99.90
56725;DHT22;42608;52.776;6.968;2023-05-21T09:04:59;16.80;99.90
56725;DHT22;42608;52.776;6.968;2023-05-21T09:07:28;16.80;99.90
56725;DHT22;42608;52.776;6.968;2023-05-21T09:09:55;16.80;99.90
56725;DHT22;42608;52.776;6.968;2023-05-21T09:12:23;16.80;99.90
56725;DHT22;42608;52.776;6.968;2023-05-21T09:14:52;16.90;99.90
56725;DHT22;42608;52.776;6.968;2023-05-21T09:17:18;17.00;99.90
56725;DHT22;42608;52.776;6.968;2023-05-21T09:22:32;17.20;99.90
56725;DHT22;42608;52.776;6.968;2023-05-21T09:24:57;17.30;99.90
56725;DHT22;42608;52.776;6.968;2023-05-21T09:27:23;17.30;99.90
56725;DHT22;42608;52.776;6.968;2023-05-21T09:29:48;17.40;99.90
56725;DHT22;42608;52.776;6.968;2023-05-21T09:32:15;17.50;99.90
56725;DHT22;42608;52.776;6.968;2023-05-21T09:34:41;17.50;99.90
56725;DHT22;42608;52.776;6.968;2023-05-21T09:37:07;17.50;99.90
56725;DHT22;42608;52.776;6.968;2023-05-21T09:39:33;17.50;99.90
56725;DHT22;42608;52.776;6.968;2023-05-21T09:41:59;17.50;99.90
56725;DHT22;42608;52.776;6.968;2023-05-21T09:44:25;17.60;99.90
56725;DHT22;42608;52.776;6.968;2023-05-21T09:46:55;17.60;99.90
56725;DHT22;42608;52.776;6.968;2023-05-21T09:49:22;17.60;99.90
56725;DHT22;42608;52.776;6.968;2023-05-21T09:51:49;17.70;99.90
56725;DHT22;42608;52.776;6.968;2023-05-21T09:54:14;17.70;99.90
56725;DHT22;42608;52.776;6.968;2023-05-21T09:56:40;17.70;99.90
56725;DHT22;42608;52.776;6.968;2023-05-21T09:59:06;17.70;99.90
56725;DHT22;42608;52.776;6.968;2023-05-21T10:01:31;17.80;99.90
56725;DHT22;42608;52.776;6.968;2023-05-21T10:04:02;17.80;99.90
56725;DHT22;42608;52.776;6.968;2023-05-21T10:06:29;17.90;99.90
56725;DHT22;42608;52.776;6.968;2023-05-21T10:08:55;18.00;99.90
56725;DHT22;42608;52.776;6.968;2023-05-21T10:11:22;18.00;99.90
56725;DHT22;42608;52.776;6.968;2023-05-21T10:13:51;18.10;99.90
56725;DHT22;42608;52.776;6.968;2023-05-21T10:16:18;18.10;99.90
56725;DHT22;42608;52.776;6.968;2023-05-21T10:18:43;18.20;99.90
56725;DHT22;42608;52.776;6.968;2023-05-21T10:21:11;18.30;99.90
56725;DHT22;42608;52.776;6.968;2023-05-21T10:23:37;18.40;99.90
56725;DHT22;42608;52.776;6.968;2023-05-21T10:26:03;18.40;99.90
56725;DHT22;42608;52.776;6.968;2023-05-21T10:28:29;18.60;99.90
56725;DHT22;42608;52.776;6.968;2023-05-21T10:30:55;18.70;99.90
56725;DHT22;42608;52.776;6.968;2023-05-21T10:33:21;18.80;99.90
56725;DHT22;42608;52.776;6.968;2023-05-21T10:35:48;18.80;99.90
56725;DHT22;42608;52.776;6.968;2023-05-21T10:38:14;18.80;99.90
56725;DHT22;42608;52.776;6.968;2023-05-21T10:40:42;18.90;99.90
56725;DHT22;42608;52.776;6.968;2023-05-21T10:56:23;19.20;99.90
56725;DHT22;42608;52.776;6.968;2023-05-21T10:58:53;19.20;99.90
56725;DHT22;42608;52.776;6.968;2023-05-21T11:01:26;19.30;99.90
56725;DHT22;42608;52.776;6.968;2023-05-21T11:03:53;19.30;99.90
56725;DHT22;42608;52.776;6.968;2023-05-21T11:06:22;19.40;99.90
56725;DHT22;42608;52.776;6.968;2023-05-21T11:08:49;19.40;99.90
56725;DHT22;42608;52.776;6.968;2023-05-21T11:12:18;19.40;99.90
56725;DHT22;42608;52.776;6.968;2023-05-21T11:16:50;19.40;99.90
56725;DHT22;42608;52.776;6.968;2023-05-21T11:19:16;19.50;99.90
56725;DHT22;42608;52.776;6.968;2023-05-21T11:21:42;19.50;99.90
56725;DHT22;42608;52.776;6.968;2023-05-21T11:24:07;19.60;99.90
56725;DHT22;42608;52.776;6.968;2023-05-21T11:27:08;19.70;99.90
56725;DHT22;42608;52.776;6.968;2023-05-21T11:29:46;19.80;99.90
56725;DHT22;42608;52.776;6.968;2023-05-21T11:32:12;19.80;99.90
56725;DHT22;42608;52.776;6.968;2023-05-21T11:34:43;19.80;99.90
56725;DHT22;42608;52.776;6.968;2023-05-21T11:39:48;20.10;99.90
56725;DHT22;42608;52.776;6.968;2023-05-21T11:44:51;20.20;99.90
56725;DHT22;42608;52.776;6.968;2023-05-21T11:47:18;20.20;99.90
56725;DHT22;42608;52.776;6.968;2023-05-21T11:49:43;20.30;99.90
56725;DHT22;42608;52.776;6.968;2023-05-21T11:52:10;20.30;99.90
56725;DHT22;42608;52.776;6.968;2023-05-21T11:54:40;20.50;99.90
56725;DHT22;42608;52.776;6.968;2023-05-21T11:57:08;20.60;99.90
56725;DHT22;42608;52.776;6.968;2023-05-21T11:59:34;20.60;99.90
56725;DHT22;42608;52.776;6.968;2023-05-21T12:02:00;20.70;99.90
56725;DHT22;42608;52.776;6.968;2023-05-21T12:04:29;20.80;99.90
56725;DHT22;42608;52.776;6.968;2023-05-21T12:06:55;20.90;99.90
56725;DHT22;42608;52.776;6.968;2023-05-21T12:09:23;20.90;99.90
56725;DHT22;42608;52.776;6.968;2023-05-21T12:11:48;20.90;99.90
56725;DHT22;42608;52.776;6.968;2023-05-21T12:14:15;21.00;99.90
56725;DHT22;42608;52.776;6.968;2023-05-21T12:16:41;21.00;99.90
56725;DHT22;42608;52.776;6.968;2023-05-21T12:19:07;21.00;99.90
56725;DHT22;42608;52.776;6.968;2023-05-21T12:21:32;21.10;99.90
56725;DHT22;42608;52.776;6.968;2023-05-21T12:23:58;21.20;99.90
56725;DHT22;42608;52.776;6.968;2023-05-21T12:26:24;21.30;99.90
56725;DHT22;42608;52.776;6.968;2023-05-21T12:28:53;21.30;99.90
56725;DHT22;42608;52.776;6.968;2023-05-21T12:31:19;21.30;99.90
56725;DHT22;42608;52.776;6.968;2023-05-21T12:33:47;21.50;99.90
56725;DHT22;42608;52.776;6.968;2023-05-21T12:36:20;21.50;99.90
56725;DHT22;42608;52.776;6.968;2023-05-21T12:38:46;21.60;99.90
56725;DHT22;42608;52.776;6.968;2023-05-21T12:41:11;21.60;99.90
56725;DHT22;42608;52.776;6.968;2023-05-21T12:43:37;21.70;99.90
56725;DHT22;42608;52.776;6.968;2023-05-21T12:46:03;21.70;99.90
56725;DHT22;42608;52.776;6.968;2023-05-21T12:48:28;21.80;99.90
56725;DHT22;42608;52.776;6.968;2023-05-21T12:50:54;22.00;99.90
56725;DHT22;42608;52.776;6.968;2023-05-21T12:53:22;22.00;99.90
56725;DHT22;42608;52.776;6.968;2023-05-21T12:55:48;22.10;99.90
56725;DHT22;42608;52.776;6.968;2023-05-21T12:58:14;22.20;99.90
56725;DHT22;42608;52.776;6.968;2023-05-21T13:00:41;22.20;99.90
56725;DHT22;42608;52.776;6.968;2023-05-21T13:03:07;22.30;99.90
56725;DHT22;42608;52.776;6.968;2023-05-21T13:05:33;22.40;99.90
56725;DHT22;42608;52.776;6.968;2023-05-21T13:07:59;22.40;99.90
56725;DHT22;42608;52.776;6.968;2023-05-21T13:10:24;22.50;99.90
56725;DHT22;42608;52.776;6.968;2023-05-21T13:12:50;22.50;99.90
56725;DHT22;42608;52.776;6.968;2023-05-21T13:15:15;22.50;99.90
56725;DHT22;42608;52.776;6.968;2023-05-21T13:17:41;22.50;99.90
56725;DHT22;42608;52.776;6.968;2023-05-21T13:20:13;22.40;99.90
56725;DHT22;42608;52.776;6.968;2023-05-21T13:25:08;22.50;99.90
56725;DHT22;42608;52.776;6.968;2023-05-21T13:27:35;22.40;99.90
56725;DHT22;42608;52.776;6.968;2023-05-21T13:30:00;22.50;99.90
56725;DHT22;42608;52.776;6.968;2023-05-21T13:32:26;22.60;99.90
56725;DHT22;42608;52.776;6.968;2023-05-21T13:34:52;22.60;99.90
56725;DHT22;42608;52.776;6.968;2023-05-21T13:37:17;22.70;99.90
56725;DHT22;42608;52.776;6.968;2023-05-21T13:39:45;22.80;99.90
56725;DHT22;42608;52.776;6.968;2023-05-21T13:42:10;22.90;99.90
56725;DHT22;42608;52.776;6.968;2023-05-21T13:44:36;23.00;99.90
56725;DHT22;42608;52.776;6.968;2023-05-21T13:47:02;23.00;99.90
56725;DHT22;42608;52.776;6.968;2023-05-21T13:49:28;23.10;99.90
56725;DHT22;42608;52.776;6.968;2023-05-21T13:51:53;23.20;99.90
56725;DHT22;42608;52.776;6.968;2023-05-21T13:54:19;23.20;99.90
56725;DHT22;42608;52.776;6.968;2023-05-21T13:56:45;23.20;99.90
56725;DHT22;42608;52.776;6.968;2023-05-21T13:59:11;23.30;99.90
56725;DHT22;42608;52.776;6.968;2023-05-21T14:01:37;23.30;99.90
56725;DHT22;42608;52.776;6.968;2023-05-21T14:04:02;23.40;99.90
56725;DHT22;42608;52.776;6.968;2023-05-21T14:06:30;23.50;99.90
56725;DHT22;42608;52.776;6.968;2023-05-21T14:08:57;23.50;99.90
56725;DHT22;42608;52.776;6.968;2023-05-21T14:11:22;23.50;99.90
56725;DHT22;42608;52.776;6.968;2023-05-21T14:13:48;23.50;99.90
56725;DHT22;42608;52.776;6.968;2023-05-21T14:16:13;23.60;99.90
56725;DHT22;42608;52.776;6.968;2023-05-21T14:18:39;23.60;99.90
56725;DHT22;42608;52.776;6.968;2023-05-21T14:21:05;23.60;99.90
56725;DHT22;42608;52.776;6.968;2023-05-21T14:23:30;23.60;99.90
56725;DHT22;42608;52.776;6.968;2023-05-21T14:25:56;23.50;99.90
56725;DHT22;42608;52.776;6.968;2023-05-21T14:28:22;23.50;99.90
56725;DHT22;42608;52.776;6.968;2023-05-21T14:30:47;23.50;99.90
56725;DHT22;42608;52.776;6.968;2023-05-21T14:33:13;23.40;99.90
56725;DHT22;42608;52.776;6.968;2023-05-21T14:35:38;23.40;99.90
56725;DHT22;42608;52.776;6.968;2023-05-21T14:38:05;23.30;99.90
56725;DHT22;42608;52.776;6.968;2023-05-21T14:40:31;23.20;99.90
56725;DHT22;42608;52.776;6.968;2023-05-21T14:42:56;23.20;99.90
56725;DHT22;42608;52.776;6.968;2023-05-21T14:45:22;23.30;99.90
56725;DHT22;42608;52.776;6.968;2023-05-21T14:47:47;23.40;99.90
56725;DHT22;42608;52.776;6.968;2023-05-21T14:50:13;23.40;99.90
56725;DHT22;42608;52.776;6.968;2023-05-21T14:52:39;23.50;99.90
56725;DHT22;42608;52.776;6.968;2023-05-21T14:55:06;23.60;99.90
56725;DHT22;42608;52.776;6.968;2023-05-21T14:57:32;23.70;99.90
56725;DHT22;42608;52.776;6.968;2023-05-21T14:59:58;23.80;99.90
56725;DHT22;42608;52.776;6.968;2023-05-21T15:02:23;23.90;99.90
56725;DHT22;42608;52.776;6.968;2023-05-21T15:04:49;24.00;99.90
56725;DHT22;42608;52.776;6.968;2023-05-21T15:07:15;24.10;99.90
56725;DHT22;42608;52.776;6.968;2023-05-21T15:09:40;24.20;99.90
56725;DHT22;42608;52.776;6.968;2023-05-21T15:12:06;24.20;99.90
56725;DHT22;42608;52.776;6.968;2023-05-21T15:14:31;24.20;99.90
56725;DHT22;42608;52.776;6.968;2023-05-21T15:16:57;24.20;99.90
56725;DHT22;42608;52.776;6.968;2023-05-21T15:19:22;24.20;99.90
56725;DHT22;42608;52.776;6.968;2023-05-21T15:21:48;24.20;99.90
56725;DHT22;42608;52.776;6.968;2023-05-21T15:24:16;24.30;99.90
56725;DHT22;42608;52.776;6.968;2023-05-21T15:26:41;24.30;99.90
56725;DHT22;42608;52.776;6.968;2023-05-21T15:29:07;24.30;99.90
56725;DHT22;42608;52.776;6.968;2023-05-21T15:31:33;24.30;99.90
56725;DHT22;42608;52.776;6.968;2023-05-21T15:33:58;24.30;99.90
56725;DHT22;42608;52.776;6.968;2023-05-21T15:36:24;24.30;99.90
56725;DHT22;42608;52.776;6.968;2023-05-21T15:38:51;24.30;99.90
56725;DHT22;42608;52.776;6.968;2023-05-21T15:41:17;24.30;99.90
56725;DHT22;42608;52.776;6.968;2023-05-21T15:43:42;24.20;99.90
56725;DHT22;42608;52.776;6.968;2023-05-21T15:46:08;24.20;99.90
56725;DHT22;42608;52.776;6.968;2023-05-21T15:48:33;24.10;99.90
56725;DHT22;42608;52.776;6.968;2023-05-21T15:50:59;24.10;99.90
56725;DHT22;42608;52.776;6.968;2023-05-21T15:53:24;24.10;99.90